Time,TemperatureF,DewpointF,PressureIn,WindDirection,WindDirectionDegrees,WindSpeedMPH,WindSpeedGustMPH,Humidity,HourlyPrecipIn,Conditions,Clouds,dailyrainin,SoftwareType,DateUTC
2013-09-05 00:01:00,81.0,37.3,30.01,ESE,112,3.5,3.5,21,0.00,CLR,,0.00,WeatherDisplay:10.37,2013-09-05 05:01:00,
2013-09-05 00:07:00,80.8,38.4,30.01,East,90,1.2,0.0,22,0.00,CLR,,0.00,WeatherDisplay:10.37,2013-09-05 05:07:00,
2013-09-05 00:12:00,80.6,38.2,30.01,NE,45,2.3,2.3,22,0.00,CLR,,0.00,WeatherDisplay:10.37,2013-09-05 05:12:00,
2013-09-05 00:17:00,80.2,39.1,30.01,NE,45,2.3,2.3,23,0.00,CLR,,0.00,WeatherDisplay:10.37,2013-09-05 05:17:00,
2013-09-05 00:22:00,80.1,37.8,30.01,NE,45,3.5,3.5,22,0.00,CLR,,0.00,WeatherDisplay:10.37,2013-09-05 05:22:00,
2013-09-05 00:27:00,79.9,38.8,30.01,NE,45,2.3,2.3,23,0.00,CLR,,0.00,WeatherDisplay:10.37,2013-09-05 05:27:00,
2013-09-05 00:32:00,79.7,38.6,30.01,NE,45,1.2,1.2,23,0.00,CLR,,0.00,WeatherDisplay:10.37,2013-09-05 05:32:00,
2013-09-05 00:37:00,79.5,38.5,30.04,NE,45,1.2,0.0,23,0.00,CLR,,0.00,WeatherDisplay:10.37,2013-09-05 05:37:00,
2013-09-05 00:42:00,79.3,38.3,30.04,NE,45,1.2,1.2,23,0.00,CLR,,0.00,WeatherDisplay:10.37,2013-09-05 05:42:00,
2013-09-05 00:47:00,79.3,38.3,30.04,NE,45,1.2,0.0,23,0.00,CLR,,0.00,WeatherDisplay:10.37,2013-09-05 05:47:00,
2013-09-05 00:52:00,79.0,39.1,30.04,NE,45,0.0,0.0,24,0.00,CLR,,0.00,WeatherDisplay:10.37,2013-09-05 05:52:00,
2013-09-05 00:57:00,78.6,39.8,30.04,NE,45,1.2,1.2,25,0.00,CLR,,0.00,WeatherDisplay:10.37,2013-09-05 05:57:00,
2013-09-05 01:02:00,78.4,39.7,30.04,NE,45,1.2,1.2,25,0.00,CLR,,0.00,WeatherDisplay:10.37,2013-09-05 06:02:00,
2013-09-05 01:07:00,78.4,39.7,30.01,East,90,2.3,2.3,25,0.00,CLR,,0.00,WeatherDisplay:10.37,2013-09-05 06:07:00,
2013-09-05 01:12:00,78.3,39.5,30.01,NE,45,1.2,1.4,25,0.00,CLR,,0.00,WeatherDisplay:10.37,2013-09-05 06:12:00,
2013-09-05 01:17:00,78.1,40.4,30.01,NE,45,1.2,0.0,26,0.00,CLR,,0.00,WeatherDisplay:10.37,2013-09-05 06:17:00,
2013-09-05 01:23:00,77.7,41.1,30.04,NE,45,0.0,0.0,27,0.00,CLR,,0.00,WeatherDisplay:10.37,2013-09-05 06:23:00,
2013-09-05 01:28:00,77.4,41.7,30.04,NE,45,0.0,0.0,28,0.00,CLR,,0.00,WeatherDisplay:10.37,2013-09-05 06:28:00,
2013-09-05 01:33:00,77.4,41.7,30.04,NE,45,1.2,0.0,28,0.00,CLR,,0.00,WeatherDisplay:10.37,2013-09-05 06:33:00,
2013-09-05 01:38:00,77.2,41.5,30.04,NE,45,1.2,1.2,28,0.00,CLR,,0.00,WeatherDisplay:10.37,2013-09-05 06:38:00,
2013-09-05 01:43:00,77.2,42.5,30.04,NE,45,0.0,0.0,29,0.00,CLR,,0.00,WeatherDisplay:10.37,2013-09-05 06:43:00,
2013-09-05 01:48:00,77.2,42.5,30.04,NE,45,0.0,0.0,29,0.00,CLR,,0.00,WeatherDisplay:10.37,2013-09-05 06:48:00,
2013-09-05 01:53:00,77.2,42.5,30.01,NE,45,1.2,0.0,29,0.00,CLR,,0.00,WeatherDisplay:10.37,2013-09-05 06:53:00,
2013-09-05 01:58:00,76.8,43.0,30.01,NE,45,1.2,1.2,30,0.00,CLR,,0.00,WeatherDisplay:10.37,2013-09-05 06:58:00,
2013-09-05 02:03:00,76.5,42.7,30.04,NE,45,0.0,0.0,30,0.00,CLR,,0.00,WeatherDisplay:10.37,2013-09-05 07:03:00,
2013-09-05 02:08:00,76.3,43.4,30.04,NE,45,0.0,0.0,31,0.00,CLR,,0.00,WeatherDisplay:10.37,2013-09-05 07:08:00,
2013-09-05 02:13:00,75.9,43.1,30.04,NE,45,0.0,0.0,31,0.00,CLR,,0.00,WeatherDisplay:10.37,2013-09-05 07:13:00,
2013-09-05 02:18:00,75.7,42.9,30.04,NE,45,0.0,0.0,31,0.00,CLR,,0.00,WeatherDisplay:10.37,2013-09-05 07:18:00,
2013-09-05 02:23:00,75.6,67.1,30.04,NE,45,0.0,0.0,75,0.00,CLR,,0.00,WeatherDisplay:10.37,2013-09-05 07:23:00,
2013-09-05 02:28:00,75.7,42.9,30.04,NE,45,1.2,1.2,31,0.00,CLR,,0.00,WeatherDisplay:10.37,2013-09-05 07:28:00,
2013-09-05 02:33:00,75.7,42.9,30.04,East,90,2.3,2.3,31,0.00,CLR,,0.00,WeatherDisplay:10.37,2013-09-05 07:33:00,
2013-09-05 02:39:00,75.9,43.1,30.04,East,90,2.3,2.3,31,0.00,CLR,,0.00,WeatherDisplay:10.37,2013-09-05 07:39:00,
2013-09-05 02:44:00,75.9,43.1,30.04,ESE,112,1.2,1.2,31,0.00,CLR,,0.00,WeatherDisplay:10.37,2013-09-05 07:44:00,
2013-09-05 02:49:00,75.9,43.1,30.01,East,90,2.3,0.0,31,0.00,CLR,,0.00,WeatherDisplay:10.37,2013-09-05 07:49:00,
2013-09-05 02:54:00,75.9,43.1,30.01,East,90,1.2,1.4,31,0.00,CLR,,0.00,WeatherDisplay:10.37,2013-09-05 07:54:00,
2013-09-05 02:59:00,75.9,43.1,30.01,East,90,2.3,2.3,31,0.00,CLR,,0.00,WeatherDisplay:10.37,2013-09-05 07:59:00,
2013-09-05 03:04:00,75.7,42.9,30.04,East,90,1.2,0.0,31,0.00,CLR,,0.00,WeatherDisplay:10.37,2013-09-05 08:04:00,
2013-09-05 03:09:00,75.6,42.8,30.04,East,90,1.2,0.0,31,0.00,CLR,,0.00,WeatherDisplay:10.37,2013-09-05 08:09:00,
2013-09-05 03:14:00,75.4,43.5,30.04,East,90,0.0,0.0,32,0.00,CLR,,0.00,WeatherDisplay:10.37,2013-09-05 08:14:00,
2013-09-05 03:19:00,75.2,43.3,30.01,East,90,0.0,0.0,32,0.00,CLR,,0.00,WeatherDisplay:10.37,2013-09-05 08:19:00,
2013-09-05 03:24:00,74.8,43.0,30.01,East,90,0.0,0.0,32,0.00,CLR,,0.00,WeatherDisplay:10.37,2013-09-05 08:24:00,
2013-09-05 03:29:00,74.7,43.6,30.01,East,90,0.0,0.0,33,0.00,CLR,,0.00,WeatherDisplay:10.37,2013-09-05 08:29:00,
2013-09-05 03:34:00,74.5,43.5,30.04,East,90,0.0,0.0,33,0.00,CLR,,0.00,WeatherDisplay:10.37,2013-09-05 08:34:00,
2013-09-05 03:39:00,74.5,43.5,30.04,East,90,0.0,0.0,33,0.00,CLR,,0.00,WeatherDisplay:10.37,2013-09-05 08:39:00,
2013-09-05 03:44:00,74.5,43.5,30.04,East,90,0.0,0.0,33,0.00,CLR,,0.00,WeatherDisplay:10.37,2013-09-05 08:44:00,
2013-09-05 03:49:00,74.3,43.3,30.01,East,90,0.0,0.0,33,0.00,CLR,,0.00,WeatherDisplay:10.37,2013-09-05 08:49:00,
2013-09-05 03:54:00,74.1,43.9,30.01,East,90,0.0,0.0,34,0.00,CLR,,0.00,WeatherDisplay:10.37,2013-09-05 08:54:00,
2013-09-05 03:59:00,73.8,43.6,30.01,East,90,0.0,0.0,34,0.00,CLR,,0.00,WeatherDisplay:10.37,2013-09-05 08:59:00,
2013-09-05 04:04:00,73.8,43.6,30.04,East,90,1.2,1.2,34,0.00,CLR,,0.00,WeatherDisplay:10.37,2013-09-05 09:04:00,
2013-09-05 04:09:00,73.6,44.2,30.04,East,90,0.0,0.0,35,0.00,CLR,,0.00,WeatherDisplay:10.37,2013-09-05 09:09:00,
2013-09-05 04:14:00,73.4,44.1,30.04,East,90,0.0,0.0,35,0.00,CLR,,0.00,WeatherDisplay:10.37,2013-09-05 09:14:00,
2013-09-05 04:19:00,73.4,44.1,30.04,East,90,0.0,0.0,35,0.00,CLR,,0.00,WeatherDisplay:10.37,2013-09-05 09:19:00,
2013-09-05 04:24:00,73.4,44.1,30.04,East,90,1.2,0.0,35,0.00,CLR,,0.00,WeatherDisplay:10.37,2013-09-05 09:24:00,
2013-09-05 04:32:00,73.0,44.5,30.04,East,90,0.0,0.0,36,0.00,CLR,,0.00,WeatherDisplay:10.37,2013-09-05 09:32:00,
2013-09-05 04:37:00,72.9,44.3,30.04,East,90,0.0,0.0,36,0.00,CLR,,0.00,WeatherDisplay:10.37,2013-09-05 09:37:00,
2013-09-05 04:42:00,72.9,44.3,30.04,East,90,0.0,0.0,36,0.00,CLR,,0.00,WeatherDisplay:10.37,2013-09-05 09:42:00,
2013-09-05 04:47:00,72.9,44.3,30.04,East,90,0.0,0.0,36,0.00,CLR,,0.00,WeatherDisplay:10.37,2013-09-05 09:47:00,
2013-09-05 04:52:00,72.7,44.9,30.04,East,90,0.0,0.0,37,0.00,CLR,,0.00,WeatherDisplay:10.37,2013-09-05 09:52:00,
2013-09-05 04:57:00,72.5,44.7,30.04,East,90,0.0,0.0,37,0.00,CLR,,0.00,WeatherDisplay:10.37,2013-09-05 09:57:00,
2013-09-05 05:02:00,72.5,44.7,30.04,East,90,0.0,0.0,37,0.00,CLR,,0.00,WeatherDisplay:10.37,2013-09-05 10:02:00,
2013-09-05 05:07:00,72.5,45.4,30.04,East,90,0.0,0.0,38,0.00,CLR,,0.00,WeatherDisplay:10.37,2013-09-05 10:07:00,
2013-09-05 05:12:00,72.5,45.4,30.04,East,90,0.0,0.0,38,0.00,CLR,,0.00,WeatherDisplay:10.37,2013-09-05 10:12:00,
2013-09-05 05:17:00,72.3,45.3,30.04,East,90,0.0,0.0,38,0.00,CLR,,0.00,WeatherDisplay:10.37,2013-09-05 10:17:00,
2013-09-05 05:22:00,72.1,45.8,30.04,East,90,0.0,0.0,39,0.00,CLR,,0.00,WeatherDisplay:10.37,2013-09-05 10:22:00,
2013-09-05 05:26:00,72.0,45.6,30.04,East,90,0.0,0.0,39,0.00,CLR,,0.00,WeatherDisplay:10.37,2013-09-05 10:26:00,
2013-09-05 05:33:00,72.0,46.3,30.04,East,90,0.0,0.0,40,0.00,CLR,,0.00,WeatherDisplay:10.37,2013-09-05 10:33:00,
2013-09-05 05:38:00,72.0,47.0,30.04,East,90,0.0,0.0,41,0.00,CLR,,0.00,WeatherDisplay:10.37,2013-09-05 10:38:00,
2013-09-05 05:43:00,71.8,46.8,30.04,East,90,0.0,0.0,41,0.00,CLR,,0.00,WeatherDisplay:10.37,2013-09-05 10:43:00,
2013-09-05 05:48:00,71.8,47.4,30.04,East,90,0.0,0.0,42,0.00,CLR,,0.00,WeatherDisplay:10.37,2013-09-05 10:48:00,
2013-09-05 05:53:00,71.8,47.4,30.04,East,90,0.0,0.0,42,0.00,CLR,,0.00,WeatherDisplay:10.37,2013-09-05 10:53:00,
2013-09-05 05:58:00,71.8,47.4,30.04,East,90,0.0,0.0,42,0.00,CLR,,0.00,WeatherDisplay:10.37,2013-09-05 10:58:00,
2013-09-05 06:03:00,71.6,47.3,30.04,East,90,0.0,0.0,42,0.00,CLR,,0.00,WeatherDisplay:10.37,2013-09-05 11:03:00,
2013-09-05 06:08:00,71.6,47.9,30.04,East,90,0.0,0.0,43,0.00,CLR,,0.00,WeatherDisplay:10.37,2013-09-05 11:08:00,
2013-09-05 06:13:00,71.6,47.9,30.04,East,90,0.0,0.0,43,0.00,CLR,,0.00,WeatherDisplay:10.37,2013-09-05 11:13:00,
2013-09-05 06:18:00,71.6,48.5,30.04,East,90,0.0,0.0,44,0.00,CLR,,0.00,WeatherDisplay:10.37,2013-09-05 11:18:00,
2013-09-05 06:24:00,71.6,48.5,30.04,East,90,0.0,0.0,44,0.00,CLR,,0.00,WeatherDisplay:10.37,2013-09-05 11:24:00,
2013-09-05 06:29:00,71.6,48.5,30.04,East,90,0.0,0.0,44,0.00,CLR,,0.00,WeatherDisplay:10.37,2013-09-05 11:29:00,
2013-09-05 06:34:00,71.4,49.0,30.01,East,90,0.0,0.0,45,0.00,CLR,,0.00,WeatherDisplay:10.37,2013-09-05 11:34:00,
2013-09-05 06:39:00,71.4,49.0,30.01,East,90,0.0,0.0,45,0.00,CLR,,0.00,WeatherDisplay:10.37,2013-09-05 11:39:00,
2013-09-05 06:44:00,71.4,49.6,30.01,East,90,0.0,0.0,46,0.00,CLR,,0.00,WeatherDisplay:10.37,2013-09-05 11:44:00,
2013-09-05 06:49:00,71.4,50.1,30.04,East,90,0.0,0.0,47,0.00,CLR,,0.00,WeatherDisplay:10.37,2013-09-05 11:49:00,
2013-09-05 06:54:00,71.2,50.5,30.04,East,90,0.0,0.0,48,0.00,CLR,,0.00,WeatherDisplay:10.37,2013-09-05 11:54:00,
2013-09-05 06:59:00,71.2,51.6,30.04,East,90,0.0,0.0,50,0.00,CLR,,0.00,WeatherDisplay:10.37,2013-09-05 11:59:00,
2013-09-05 07:04:00,71.4,53.9,30.04,East,90,0.0,0.0,54,0.00,CLR,,0.00,WeatherDisplay:10.37,2013-09-05 12:04:00,
2013-09-05 07:09:00,71.6,56.0,30.04,WNW,292,2.3,2.3,58,0.00,CLR,,0.00,WeatherDisplay:10.37,2013-09-05 12:09:00,
2013-09-05 07:14:00,71.6,56.0,30.04,WNW,292,0.0,0.0,58,0.00,CLR,,0.00,WeatherDisplay:10.37,2013-09-05 12:14:00,
2013-09-05 07:19:00,71.6,56.0,30.04,WNW,292,0.0,0.0,58,0.00,CLR,,0.00,WeatherDisplay:10.37,2013-09-05 12:19:00,
2013-09-05 07:24:00,71.6,56.0,30.04,WNW,292,1.2,0.0,58,0.00,CLR,,0.00,WeatherDisplay:10.37,2013-09-05 12:24:00,
2013-09-05 07:29:00,71.8,56.2,30.04,WNW,292,3.5,3.5,58,0.00,CLR,,0.00,WeatherDisplay:10.37,2013-09-05 12:29:00,
2013-09-05 07:34:00,72.0,55.9,30.04,WNW,292,0.0,0.0,57,0.00,CLR,,0.00,WeatherDisplay:10.37,2013-09-05 12:34:00,
2013-09-05 07:39:00,72.1,54.1,30.04,WNW,292,0.0,0.0,53,0.00,CLR,,0.00,WeatherDisplay:10.37,2013-09-05 12:39:00,
2013-09-05 07:44:00,72.3,52.6,30.04,WNW,292,0.0,0.0,50,0.00,CLR,,0.00,WeatherDisplay:10.37,2013-09-05 12:44:00,
2013-09-05 07:49:00,72.5,51.1,30.04,WNW,292,2.3,2.3,47,0.00,CLR,,0.00,WeatherDisplay:10.37,2013-09-05 12:49:00,
2013-09-05 07:54:00,72.9,49.7,30.04,NW,315,2.6,0.0,44,0.00,CLR,,0.00,WeatherDisplay:10.37,2013-09-05 12:54:00,
2013-09-05 07:59:00,73.2,49.4,30.04,NW,315,3.5,3.5,43,0.00,CLR,,0.00,WeatherDisplay:10.37,2013-09-05 12:59:00,
2013-09-05 08:04:00,73.6,48.4,30.07,NW,315,1.2,1.6,41,0.00,CLR,,0.00,WeatherDisplay:10.37,2013-09-05 13:04:00,
2013-09-05 08:09:00,73.9,48.1,30.07,NW,315,1.2,1.2,40,0.00,CLR,,0.00,WeatherDisplay:10.37,2013-09-05 13:09:00,
2013-09-05 08:15:00,74.3,47.0,30.07,WNW,292,2.3,2.3,38,0.00,CLR,,0.00,WeatherDisplay:10.37,2013-09-05 13:15:00,
2013-09-05 08:20:00,74.7,46.7,30.07,NNE,22,3.5,3.5,37,0.00,CLR,,0.00,WeatherDisplay:10.37,2013-09-05 13:20:00,
2013-09-05 08:25:00,74.8,46.8,30.07,NW,315,2.3,2.9,37,0.00,CLR,,0.00,WeatherDisplay:10.37,2013-09-05 13:25:00,
2013-09-05 08:30:00,75.2,47.1,30.07,NE,45,3.8,3.8,37,0.00,CLR,,0.00,WeatherDisplay:10.37,2013-09-05 13:30:00,
2013-09-05 08:35:00,75.4,46.6,30.10,NW,315,2.3,2.3,36,0.00,CLR,,0.00,WeatherDisplay:10.37,2013-09-05 13:35:00,
2013-09-05 08:40:00,75.9,46.3,30.10,NE,45,1.2,1.2,35,0.00,CLR,,0.00,WeatherDisplay:10.37,2013-09-05 13:40:00,
2013-09-05 08:45:00,77.0,44.9,30.10,NE,45,3.3,3.3,32,0.00,CLR,,0.00,WeatherDisplay:10.37,2013-09-05 13:45:00,
2013-09-05 08:50:00,77.2,45.8,30.10,NW,315,4.6,4.6,33,0.00,CLR,,0.00,WeatherDisplay:10.37,2013-09-05 13:50:00,
2013-09-05 08:55:00,77.4,46.0,30.10,NW,315,4.6,4.6,33,0.00,CLR,,0.00,WeatherDisplay:10.37,2013-09-05 13:55:00,
2013-09-05 09:00:00,77.7,46.3,30.10,NNW,338,4.6,4.6,33,0.00,CLR,,0.00,WeatherDisplay:10.37,2013-09-05 14:00:00,
2013-09-05 09:05:00,78.1,45.8,30.10,NE,45,2.3,2.4,32,0.00,CLR,,0.00,WeatherDisplay:10.37,2013-09-05 14:05:00,
2013-09-05 09:10:00,78.4,46.1,30.10,NE,45,3.5,3.5,32,0.00,CLR,,0.00,WeatherDisplay:10.37,2013-09-05 14:10:00,
2013-09-05 09:15:00,78.8,46.4,30.10,NNW,338,2.3,2.3,32,0.00,CLR,,0.00,WeatherDisplay:10.37,2013-09-05 14:15:00,
2013-09-05 09:20:00,79.2,45.9,30.10,NE,45,2.3,2.3,31,0.00,CLR,,0.00,WeatherDisplay:10.37,2013-09-05 14:20:00,
2013-09-05 09:25:00,79.7,46.4,30.10,NE,45,4.6,4.6,31,0.00,CLR,,0.00,WeatherDisplay:10.37,2013-09-05 14:25:00,
2013-09-05 09:30:00,79.9,46.5,30.10,NE,45,3.6,3.6,31,0.00,CLR,,0.00,WeatherDisplay:10.37,2013-09-05 14:30:00,
2013-09-05 09:35:00,80.4,47.0,30.10,NW,315,3.5,3.5,31,0.00,CLR,,0.00,WeatherDisplay:10.37,2013-09-05 14:35:00,
2013-09-05 09:40:00,80.6,47.2,30.10,NE,45,3.5,3.5,31,0.00,CLR,,0.00,WeatherDisplay:10.37,2013-09-05 14:40:00,
2013-09-05 09:45:00,81.3,46.9,30.10,NNE,22,2.9,3.3,30,0.00,CLR,,0.00,WeatherDisplay:10.37,2013-09-05 14:45:00,
2013-09-05 09:50:00,81.9,47.4,30.10,NE,45,3.5,3.5,30,0.00,SCT,,0.00,WeatherDisplay:10.37,2013-09-05 14:50:00,
2013-09-05 09:55:00,81.9,47.4,30.10,NE,45,4.6,4.6,30,0.00,SCT,,0.00,WeatherDisplay:10.37,2013-09-05 14:55:00,
2013-09-05 10:00:00,82.0,47.5,30.10,NNE,22,4.6,4.6,30,0.00,SCT,,0.00,WeatherDisplay:10.37,2013-09-05 15:00:00,
2013-09-05 10:05:00,81.9,47.4,30.10,NE,45,2.3,2.4,30,0.00,SCT,,0.00,WeatherDisplay:10.37,2013-09-05 15:05:00,
2013-09-05 11:47:00,87.8,40.4,30.13,NE,45,4.6,4.6,19,0.00,SCT,,0.00,WeatherDisplay:10.37,2013-09-05 16:47:00,
2013-09-05 11:52:00,87.8,40.4,30.10,NE,45,2.3,2.3,19,0.00,SCT,,0.00,WeatherDisplay:10.37,2013-09-05 16:52:00,
2013-09-05 11:57:00,89.6,40.5,30.10,NE,45,3.5,3.5,18,0.00,SCT,,0.00,WeatherDisplay:10.37,2013-09-05 16:57:00,
2013-09-05 12:02:00,88.9,39.9,30.10,NW,315,4.7,4.7,18,0.00,SCT,,0.00,WeatherDisplay:10.37,2013-09-05 17:02:00,
2013-09-05 12:07:00,88.2,39.3,30.07,ESE,112,2.3,2.3,18,0.00,SCT,,0.00,WeatherDisplay:10.37,2013-09-05 17:07:00,
2013-09-05 12:12:00,89.8,39.1,30.07,NE,45,3.5,3.5,17,0.00,SCT,,0.00,WeatherDisplay:10.37,2013-09-05 17:12:00,
2013-09-05 12:17:00,89.4,38.9,30.07,North,0,4.6,4.7,17,0.00,SCT,,0.00,WeatherDisplay:10.37,2013-09-05 17:17:00,
2013-09-05 12:22:00,89.1,38.6,30.07,ESE,112,4.6,4.6,17,0.00,SCT,,0.00,WeatherDisplay:10.37,2013-09-05 17:22:00,
2013-09-05 12:27:00,90.0,34.4,30.07,North,0,5.8,5.8,14,0.00,SCT,,0.00,WeatherDisplay:10.37,2013-09-05 17:27:00,
2013-09-05 12:32:00,90.0,34.4,30.07,NNE,22,3.5,3.5,14,0.00,BKN,,0.00,WeatherDisplay:10.37,2013-09-05 17:32:00,
2013-09-05 12:37:00,91.2,35.4,30.07,NE,45,5.8,5.8,14,0.00,BKN,,0.00,WeatherDisplay:10.37,2013-09-05 17:37:00,
2013-09-05 12:42:00,90.7,34.9,30.07,NNW,338,3.5,3.8,14,0.00,BKN,,0.00,WeatherDisplay:10.37,2013-09-05 17:42:00,
2013-09-05 12:47:00,90.5,34.8,30.07,NE,45,5.8,5.8,14,0.00,BKN,,0.00,WeatherDisplay:10.37,2013-09-05 17:47:00,
2013-09-05 12:52:00,92.1,30.0,30.07,ENE,68,5.8,5.8,11,0.00,BKN,,0.00,WeatherDisplay:10.37,2013-09-05 17:52:00,
2013-09-05 12:57:00,91.9,29.9,30.07,NE,45,2.3,2.6,11,0.00,BKN,,0.00,WeatherDisplay:10.37,2013-09-05 17:57:00,
2013-09-05 13:02:00,92.7,30.5,30.07,WNW,292,5.6,5.6,11,0.00,BKN,,0.00,WeatherDisplay:10.37,2013-09-05 18:02:00,
2013-09-05 13:07:00,92.8,30.6,30.04,NW,315,2.3,2.6,11,0.00,BKN,,0.00,WeatherDisplay:10.37,2013-09-05 18:07:00,
2013-09-05 13:12:00,93.4,31.0,30.04,NNE,22,8.1,8.1,11,0.00,BKN,,0.00,WeatherDisplay:10.37,2013-09-05 18:12:00,
2013-09-05 13:17:00,94.6,66.6,30.04,North,0,3.5,3.5,40,0.00,BKN,,0.00,WeatherDisplay:10.37,2013-09-05 18:17:00,
2013-09-05 13:22:00,93.2,30.9,30.04,NW,315,8.1,8.1,11,0.00,BKN,,0.00,WeatherDisplay:10.37,2013-09-05 18:22:00,
2013-09-05 13:27:00,92.7,30.5,30.04,East,90,5.8,5.8,11,0.00,BKN,,0.00,WeatherDisplay:10.37,2013-09-05 18:27:00,
2013-09-05 13:32:00,93.0,30.7,30.04,ENE,68,5.9,5.9,11,0.00,BKN,,0.00,WeatherDisplay:10.37,2013-09-05 18:32:00,
2013-09-05 13:37:00,92.7,64.8,30.04,NW,315,5.8,5.8,40,0.00,BKN,,0.00,WeatherDisplay:10.37,2013-09-05 18:37:00,
2013-09-05 13:42:00,92.5,30.3,30.04,NNW,338,3.5,5.9,11,0.00,SCT,,0.00,WeatherDisplay:10.37,2013-09-05 18:42:00,
2013-09-05 13:47:00,92.8,30.6,30.04,NW,315,2.3,4.0,11,0.00,SCT,,0.00,WeatherDisplay:10.37,2013-09-05 18:47:00,
2013-09-05 13:52:00,92.1,65.7,30.04,NW,315,4.9,4.9,42,0.00,SCT,,0.00,WeatherDisplay:10.37,2013-09-05 18:52:00,
2013-09-05 13:57:00,93.7,67.2,30.04,West,270,8.1,8.1,42,0.00,SCT,,0.00,WeatherDisplay:10.37,2013-09-05 18:57:00,
2013-09-05 14:02:00,93.9,65.9,30.04,NNE,22,4.6,4.6,40,0.00,BKN,,0.00,WeatherDisplay:10.37,2013-09-05 19:02:00,
2013-09-05 14:07:00,93.4,65.4,30.04,East,90,4.6,4.6,40,0.00,BKN,,0.00,WeatherDisplay:10.37,2013-09-05 19:07:00,
2013-09-05 14:12:00,94.3,66.3,30.04,ENE,68,5.8,5.8,40,0.00,BKN,,0.00,WeatherDisplay:10.37,2013-09-05 19:12:00,
2013-09-05 14:17:00,95.5,67.4,30.04,NNW,338,8.1,8.1,40,0.00,BKN,,0.00,WeatherDisplay:10.37,2013-09-05 19:17:00,
2013-09-05 14:22:00,94.3,65.5,30.01,ENE,68,4.6,4.6,39,0.00,BKN,,0.00,WeatherDisplay:10.37,2013-09-05 19:22:00,
2013-09-05 14:28:00,96.1,67.1,30.01,North,0,3.5,4.9,39,0.00,BKN,,0.00,WeatherDisplay:10.37,2013-09-05 19:28:00,
2013-09-05 14:33:00,97.2,68.1,30.01,NNE,22,2.3,6.9,39,0.00,BKN,,0.00,WeatherDisplay:10.37,2013-09-05 19:33:00,
2013-09-05 14:38:00,95.2,66.3,30.01,NNW,338,5.8,5.8,39,0.00,BKN,,0.00,WeatherDisplay:10.37,2013-09-05 19:38:00,
2013-09-05 14:43:00,95.4,65.0,30.01,NE,45,4.6,5.6,37,0.00,BKN,,0.00,WeatherDisplay:10.37,2013-09-05 19:43:00,
2013-09-05 14:48:00,96.3,65.8,30.01,East,90,4.6,4.6,37,0.00,BKN,,0.00,WeatherDisplay:10.37,2013-09-05 19:48:00,
2013-09-05 14:53:00,96.4,65.9,30.01,NE,45,8.1,8.1,37,0.00,BKN,,0.00,WeatherDisplay:10.37,2013-09-05 19:53:00,
2013-09-05 14:58:00,95.2,64.8,30.01,ENE,68,3.5,3.5,37,0.00,BKN,,0.00,WeatherDisplay:10.37,2013-09-05 19:58:00,
2013-09-05 15:03:00,95.5,63.5,30.01,ENE,68,8.5,8.5,35,0.00,SCT,,0.00,WeatherDisplay:10.37,2013-09-05 20:03:00,
2013-09-05 15:08:00,97.2,65.0,29.98,WSW,248,2.3,2.3,35,0.00,SCT,,0.00,WeatherDisplay:10.37,2013-09-05 20:08:00,
2013-09-05 15:13:00,98.8,66.4,29.98,NW,315,3.5,3.5,35,0.00,SCT,,0.00,WeatherDisplay:10.37,2013-09-05 20:13:00,
2013-09-05 15:18:00,99.0,66.5,29.98,NNE,22,5.8,5.8,35,0.00,SCT,,0.00,WeatherDisplay:10.37,2013-09-05 20:18:00,
2013-09-05 15:23:00,97.5,62.7,29.98,NE,45,5.8,5.8,32,0.00,SCT,,0.00,WeatherDisplay:10.37,2013-09-05 20:23:00,
2013-09-05 15:28:00,95.9,61.3,29.98,NE,45,6.9,6.9,32,0.00,SCT,,0.00,WeatherDisplay:10.37,2013-09-05 20:28:00,
2013-09-05 15:33:00,95.2,60.7,29.98,NE,45,5.8,5.8,32,0.00,SCT,,0.00,WeatherDisplay:10.37,2013-09-05 20:33:00,
2013-09-05 15:38:00,94.8,60.4,29.98,NNE,22,4.6,5.4,32,0.00,SCT,,0.00,WeatherDisplay:10.37,2013-09-05 20:38:00,
2013-09-05 15:43:00,94.6,61.1,29.98,NE,45,9.2,9.2,33,0.00,BKN,,0.00,WeatherDisplay:10.37,2013-09-05 20:43:00,
2013-09-05 15:48:00,94.5,60.9,29.98,North,0,5.8,5.8,33,0.00,BKN,,0.00,WeatherDisplay:10.37,2013-09-05 20:48:00,
2013-09-05 15:53:00,96.4,62.6,29.98,NW,315,2.3,2.3,33,0.00,BKN,,0.00,WeatherDisplay:10.37,2013-09-05 20:53:00,
2013-09-05 15:58:00,98.8,64.7,29.98,NE,45,5.8,5.8,33,0.00,BKN,,0.00,WeatherDisplay:10.37,2013-09-05 20:58:00,
2013-09-05 16:03:00,96.6,63.6,29.98,East,90,8.1,8.1,34,0.00,BKN,,0.00,WeatherDisplay:10.37,2013-09-05 21:03:00,
2013-09-05 16:08:00,95.9,63.0,29.98,NE,45,8.1,8.1,34,0.00,BKN,,0.00,WeatherDisplay:10.37,2013-09-05 21:08:00,
2013-09-05 16:13:00,95.2,62.4,29.98,ENE,68,6.9,6.9,34,0.00,BKN,,0.00,WeatherDisplay:10.37,2013-09-05 21:13:00,
2013-09-05 16:18:00,93.7,61.1,29.95,NE,45,2.3,4.5,34,0.00,BKN,,0.00,WeatherDisplay:10.37,2013-09-05 21:18:00,
2013-09-05 16:23:00,93.0,65.1,29.95,ENE,68,2.3,2.6,40,0.00,BKN,,0.00,WeatherDisplay:10.37,2013-09-05 21:23:00,
2013-09-05 16:28:00,93.0,65.1,29.95,ENE,68,2.3,2.3,40,0.00,BKN,,0.00,WeatherDisplay:10.37,2013-09-05 21:28:00,
2013-09-05 16:33:00,93.2,65.3,29.98,NE,45,6.9,6.9,40,0.00,BKN,,0.00,WeatherDisplay:10.37,2013-09-05 21:33:00,
2013-09-05 16:38:00,93.0,65.1,29.98,East,90,5.9,5.9,40,0.00,BKN,,0.00,WeatherDisplay:10.37,2013-09-05 21:38:00,
2013-09-05 16:43:00,93.0,77.1,29.98,NNE,22,6.9,6.9,60,0.00,OVC,,0.00,WeatherDisplay:10.37,2013-09-05 21:43:00,
2013-09-05 16:48:00,93.0,77.1,29.98,NE,45,5.8,5.8,60,0.00,OVC,,0.00,WeatherDisplay:10.37,2013-09-05 21:48:00,
2013-09-05 16:53:00,92.5,76.6,29.98,SE,135,7.1,7.1,60,0.00,OVC,,0.00,WeatherDisplay:10.37,2013-09-05 21:53:00,
2013-09-05 16:58:00,91.6,75.7,29.98,SE,135,4.6,4.6,60,0.00,OVC,,0.00,WeatherDisplay:10.37,2013-09-05 21:58:00,
2013-09-05 17:03:00,91.2,74.9,29.98,East,90,6.9,6.9,59,0.00,BKN,,0.00,WeatherDisplay:10.37,2013-09-05 22:03:00,
2013-09-05 17:08:00,91.0,74.7,29.98,NE,45,5.8,5.8,59,0.00,BKN,,0.00,WeatherDisplay:10.37,2013-09-05 22:08:00,
2013-09-05 17:13:00,91.0,74.7,29.98,ESE,112,5.8,5.8,59,0.00,BKN,,0.00,WeatherDisplay:10.37,2013-09-05 22:13:00,
2013-09-05 17:18:00,91.0,74.7,29.98,NE,45,3.5,4.7,59,0.00,BKN,,0.00,WeatherDisplay:10.37,2013-09-05 22:18:00,
2013-09-05 17:23:00,90.9,76.0,29.98,SSE,158,9.2,9.2,62,0.00,BKN,,0.00,WeatherDisplay:10.37,2013-09-05 22:23:00,
2013-09-05 17:28:00,90.7,75.9,29.98,NE,45,4.6,4.6,62,0.00,BKN,,0.00,WeatherDisplay:10.37,2013-09-05 22:28:00,
2013-09-05 17:33:00,90.5,75.7,29.98,East,90,3.5,4.7,62,0.00,BKN,,0.00,WeatherDisplay:10.37,2013-09-05 22:33:00,
2013-09-05 17:38:00,90.3,75.5,29.98,SE,135,4.9,4.9,62,0.00,BKN,,0.00,WeatherDisplay:10.37,2013-09-05 22:38:00,
2013-09-05 17:43:00,90.3,73.0,29.98,NE,45,6.9,6.9,57,0.00,SCT,,0.00,WeatherDisplay:10.37,2013-09-05 22:43:00,
2013-09-05 17:49:00,90.3,73.0,29.98,ESE,112,3.5,3.5,57,0.00,SCT,,0.00,WeatherDisplay:10.37,2013-09-05 22:49:00,
2013-09-05 17:54:00,90.0,72.7,29.98,East,90,5.8,5.8,57,0.00,SCT,,0.00,WeatherDisplay:10.37,2013-09-05 22:54:00,
2013-09-05 17:59:00,90.0,72.7,29.98,ESE,112,5.8,5.8,57,0.00,SCT,,0.00,WeatherDisplay:10.37,2013-09-05 22:59:00,
2013-09-05 18:04:00,89.8,69.2,29.98,SE,135,3.5,3.5,51,0.00,CLR,,0.00,WeatherDisplay:10.37,2013-09-05 23:04:00,
2013-09-05 18:09:00,89.8,69.2,29.98,ESE,112,4.6,4.7,51,0.00,CLR,,0.00,WeatherDisplay:10.37,2013-09-05 23:09:00,
2013-09-05 18:14:00,89.8,69.2,29.98,East,90,5.8,5.8,51,0.00,CLR,,0.00,WeatherDisplay:10.37,2013-09-05 23:14:00,
2013-09-05 18:19:00,89.8,69.2,29.98,SE,135,4.6,4.6,51,0.00,CLR,,0.00,WeatherDisplay:10.37,2013-09-05 23:19:00,
2013-09-05 18:24:00,89.8,66.2,29.98,East,90,3.5,3.5,46,0.00,CLR,,0.00,WeatherDisplay:10.37,2013-09-05 23:24:00,
2013-09-05 18:29:00,89.6,66.1,29.98,East,90,5.8,5.8,46,0.00,CLR,,0.00,WeatherDisplay:10.37,2013-09-05 23:29:00,
2013-09-05 18:34:00,89.6,66.1,29.98,ESE,112,5.8,5.8,46,0.00,CLR,,0.00,WeatherDisplay:10.37,2013-09-05 23:34:00,
2013-09-05 18:39:00,89.4,65.9,29.98,NNE,22,3.3,3.3,46,0.00,CLR,,0.00,WeatherDisplay:10.37,2013-09-05 23:39:00,
2013-09-05 18:44:00,89.2,65.1,29.98,East,90,3.5,3.5,45,0.00,CLR,,0.00,WeatherDisplay:10.37,2013-09-05 23:44:00,
2013-09-05 18:49:00,89.2,65.1,29.98,ESE,112,3.5,3.5,45,0.00,CLR,,0.00,WeatherDisplay:10.37,2013-09-05 23:49:00,
2013-09-05 18:54:00,89.1,65.0,29.98,ESE,112,3.5,3.8,45,0.00,CLR,,0.00,WeatherDisplay:10.37,2013-09-05 23:54:00,
2013-09-05 18:59:00,88.7,64.6,29.98,East,90,4.6,4.6,45,0.00,CLR,,0.00,WeatherDisplay:10.37,2013-09-05 23:59:00,
2013-09-05 19:04:00,88.3,65.6,29.98,ESE,112,9.2,9.2,47,0.00,CLR,,0.00,WeatherDisplay:10.37,2013-09-06 00:04:00,
2013-09-05 19:09:00,88.2,65.4,29.98,East,90,3.5,4.0,47,0.00,CLR,,0.00,WeatherDisplay:10.37,2013-09-06 00:09:00,
2013-09-05 19:14:00,87.8,65.1,29.98,East,90,8.1,8.1,47,0.00,CLR,,0.00,WeatherDisplay:10.37,2013-09-06 00:14:00,
2013-09-05 19:19:00,87.6,64.9,30.01,East,90,6.9,6.9,47,0.00,CLR,,0.00,WeatherDisplay:10.37,2013-09-06 00:19:00,
2013-09-05 19:24:00,87.4,68.2,30.01,NE,45,6.9,6.9,53,0.00,CLR,,0.00,WeatherDisplay:10.37,2013-09-06 00:24:00,
2013-09-05 19:29:00,87.3,68.0,30.01,ESE,112,4.6,4.6,53,0.00,CLR,,0.00,WeatherDisplay:10.37,2013-09-06 00:29:00,
2013-09-05 19:34:00,87.1,67.9,30.01,East,90,3.5,3.6,53,0.00,CLR,,0.00,WeatherDisplay:10.37,2013-09-06 00:34:00,
2013-09-05 19:39:00,86.7,67.5,30.01,NE,45,4.6,4.6,53,0.00,CLR,,0.00,WeatherDisplay:10.37,2013-09-06 00:39:00,
2013-09-05 19:44:00,86.7,67.5,30.01,East,90,6.9,6.9,53,0.00,CLR,,0.00,WeatherDisplay:10.37,2013-09-06 00:44:00,
2013-09-05 19:49:00,86.5,67.4,30.01,East,90,3.5,3.5,53,0.00,CLR,,0.00,WeatherDisplay:10.37,2013-09-06 00:49:00,
2013-09-05 19:54:00,86.4,67.2,30.01,SSE,158,6.9,6.9,53,0.00,CLR,,0.00,WeatherDisplay:10.37,2013-09-06 00:54:00,
2013-09-05 19:59:00,86.0,25.4,30.01,SE,135,3.5,3.8,11,0.00,CLR,,0.00,WeatherDisplay:10.37,2013-09-06 00:59:00,
2013-09-05 20:04:00,85.8,25.2,30.01,SE,135,2.3,2.4,11,0.00,CLR,,0.00,WeatherDisplay:10.37,2013-09-06 01:04:00,
2013-09-05 20:09:00,85.8,25.2,30.01,North,0,5.8,5.8,11,0.00,CLR,,0.00,WeatherDisplay:10.37,2013-09-06 01:09:00,
2013-09-05 20:14:00,85.6,25.1,30.01,NE,45,2.3,2.3,11,0.00,CLR,,0.00,WeatherDisplay:10.37,2013-09-06 01:14:00,
2013-09-05 20:19:00,85.5,24.9,30.01,ESE,112,2.6,2.6,11,0.00,CLR,,0.00,WeatherDisplay:10.37,2013-09-06 01:19:00,
2013-09-05 20:24:00,85.3,24.8,30.01,ESE,112,4.6,4.6,11,0.00,CLR,,0.00,WeatherDisplay:10.37,2013-09-06 01:24:00,
2013-09-05 20:29:00,85.1,24.7,30.01,NE,45,3.5,3.5,11,0.00,CLR,,0.00,WeatherDisplay:10.37,2013-09-06 01:29:00,
2013-09-05 20:34:00,84.9,24.5,30.01,East,90,3.5,3.5,11,0.00,CLR,,0.00,WeatherDisplay:10.37,2013-09-06 01:34:00,
2013-09-05 20:39:00,84.9,24.5,30.01,ESE,112,2.3,2.6,11,0.00,CLR,,0.00,WeatherDisplay:10.37,2013-09-06 01:39:00,
2013-09-05 20:44:00,84.7,24.4,30.01,NNE,22,2.0,2.0,11,0.00,CLR,,0.00,WeatherDisplay:10.37,2013-09-06 01:44:00,
2013-09-05 20:49:00,84.6,28.3,30.04,East,90,4.6,4.6,13,0.00,CLR,,0.00,WeatherDisplay:10.37,2013-09-06 01:49:00,
2013-09-05 20:54:00,84.4,28.1,30.04,NE,45,2.3,2.3,13,0.00,CLR,,0.00,WeatherDisplay:10.37,2013-09-06 01:54:00,
2013-09-05 20:59:00,84.2,28.0,30.04,East,90,1.2,0.0,13,0.00,CLR,,0.00,WeatherDisplay:10.37,2013-09-06 01:59:00,
2013-09-05 21:04:00,83.8,27.7,30.04,East,90,1.2,1.2,13,0.00,CLR,,0.00,WeatherDisplay:10.37,2013-09-06 02:04:00,
2013-09-05 21:09:00,83.7,27.6,30.04,ESE,112,3.5,3.5,13,0.00,CLR,,0.00,WeatherDisplay:10.37,2013-09-06 02:09:00,
2013-09-05 21:14:00,83.7,27.6,30.04,ESE,112,1.2,1.2,13,0.00,CLR,,0.00,WeatherDisplay:10.37,2013-09-06 02:14:00,
2013-09-05 21:19:00,83.5,27.4,30.04,ESE,112,3.5,3.5,13,0.00,CLR,,0.00,WeatherDisplay:10.37,2013-09-06 02:19:00,
2013-09-05 21:24:00,83.3,27.3,30.04,East,90,2.3,2.4,13,0.00,CLR,,0.00,WeatherDisplay:10.37,2013-09-06 02:24:00,
2013-09-05 21:29:00,83.3,27.3,30.04,East,90,3.5,3.5,13,0.00,CLR,,0.00,WeatherDisplay:10.37,2013-09-06 02:29:00,
2013-09-05 21:34:00,83.1,27.2,30.04,East,90,2.3,2.4,13,0.00,CLR,,0.00,WeatherDisplay:10.37,2013-09-06 02:34:00,
2013-09-05 21:39:00,82.9,32.1,30.04,East,90,1.2,1.4,16,0.00,CLR,,0.00,WeatherDisplay:10.37,2013-09-06 02:39:00,
2013-09-05 21:44:00,82.9,32.1,30.04,ESE,112,3.5,3.5,16,0.00,CLR,,0.00,WeatherDisplay:10.37,2013-09-06 02:44:00,
2013-09-05 21:49:00,82.8,32.0,30.04,ENE,68,5.8,5.8,16,0.00,CLR,,0.00,WeatherDisplay:10.37,2013-09-06 02:49:00,
2013-09-05 21:54:00,82.8,32.0,30.04,NE,45,2.3,2.3,16,0.00,CLR,,0.00,WeatherDisplay:10.37,2013-09-06 02:54:00,
2013-09-05 21:59:00,82.6,31.8,30.04,ESE,112,2.3,2.4,16,0.00,CLR,,0.00,WeatherDisplay:10.37,2013-09-06 02:59:00,
2013-09-05 22:04:00,82.6,31.8,30.04,ESE,112,3.5,3.5,16,0.00,CLR,,0.00,WeatherDisplay:10.37,2013-09-06 03:04:00,
2013-09-05 22:09:00,82.4,36.0,30.04,ESE,112,1.2,2.4,19,0.00,CLR,,0.00,WeatherDisplay:10.37,2013-09-06 03:09:00,
2013-09-05 22:14:00,82.0,35.7,30.04,ESE,112,3.8,3.8,19,0.00,CLR,,0.00,WeatherDisplay:10.37,2013-09-06 03:14:00,
2013-09-05 22:19:00,81.9,35.5,30.04,East,90,2.3,2.4,19,0.00,CLR,,0.00,WeatherDisplay:10.37,2013-09-06 03:19:00,
2013-09-05 22:24:00,81.9,35.5,30.04,NE,45,2.3,2.3,19,0.00,CLR,,0.00,WeatherDisplay:10.37,2013-09-06 03:24:00,
2013-09-05 22:29:00,81.7,35.4,30.04,SE,135,2.3,2.3,19,0.00,CLR,,0.00,WeatherDisplay:10.37,2013-09-06 03:29:00,
2013-09-05 22:34:00,81.5,35.2,30.04,SE,135,2.3,2.3,19,0.00,CLR,,0.00,WeatherDisplay:10.37,2013-09-06 03:34:00,
2013-09-05 22:39:00,81.3,36.4,30.04,ESE,112,3.5,3.5,20,0.00,CLR,,0.00,WeatherDisplay:10.37,2013-09-06 03:39:00,
2013-09-05 22:44:00,81.1,36.2,30.04,ESE,112,3.5,3.5,20,0.00,CLR,,0.00,WeatherDisplay:10.37,2013-09-06 03:44:00,
2013-09-05 22:49:00,81.1,36.2,30.07,ESE,112,1.2,2.2,20,0.00,CLR,,0.00,WeatherDisplay:10.37,2013-09-06 03:49:00,
2013-09-05 22:54:00,81.0,36.1,30.07,ESE,112,5.8,5.8,20,0.00,CLR,,0.00,WeatherDisplay:10.37,2013-09-06 03:54:00,
2013-09-05 22:59:00,80.8,36.0,30.07,ESE,112,2.3,2.3,20,0.00,CLR,,0.00,WeatherDisplay:10.37,2013-09-06 03:59:00,
2013-09-05 23:01:00,80.8,36.0,30.07,SE,135,3.5,3.5,20,0.00,CLR,,0.00,WeatherDisplay:10.37,2013-09-06 04:01:00,
2013-09-05 23:02:00,80.8,36.0,30.07,SE,135,2.3,2.3,20,0.00,CLR,,0.00,WeatherDisplay:10.37,2013-09-06 04:02:00,
2013-09-05 23:07:00,80.6,37.0,30.07,SE,135,2.3,2.3,21,0.00,CLR,,0.00,WeatherDisplay:10.37,2013-09-06 04:07:00,
2013-09-05 23:12:00,80.6,37.0,30.07,SE,135,1.2,1.2,21,0.00,CLR,,0.00,WeatherDisplay:10.37,2013-09-06 04:12:00,
2013-09-05 23:17:00,80.4,36.9,30.07,SE,135,1.2,1.6,21,0.00,CLR,,0.00,WeatherDisplay:10.37,2013-09-06 04:17:00,
2013-09-05 23:22:00,80.2,36.7,30.07,ESE,112,2.3,2.3,21,0.00,CLR,,0.00,WeatherDisplay:10.37,2013-09-06 04:22:00,
2013-09-05 23:27:00,80.1,36.6,30.07,ESE,112,1.2,0.0,21,0.00,CLR,,0.00,WeatherDisplay:10.37,2013-09-06 04:27:00,
2013-09-05 23:32:00,79.9,36.4,30.07,ESE,112,2.3,2.3,21,0.00,CLR,,0.00,WeatherDisplay:10.37,2013-09-06 04:32:00,
2013-09-05 23:37:00,79.9,36.4,30.07,ESE,112,3.5,3.5,21,0.00,CLR,,0.00,WeatherDisplay:10.37,2013-09-06 04:37:00,
2013-09-05 23:42:00,79.7,36.3,30.07,ESE,112,3.5,3.5,21,0.00,CLR,,0.00,WeatherDisplay:10.37,2013-09-06 04:42:00,
2013-09-05 23:47:00,79.5,37.3,30.07,ESE,112,2.3,2.3,22,0.00,CLR,,0.00,WeatherDisplay:10.37,2013-09-06 04:47:00,
2013-09-05 23:52:00,79.3,37.2,30.07,ESE,112,0.0,1.6,22,0.00,CLR,,0.00,WeatherDisplay:10.37,2013-09-06 04:52:00,
2013-09-05 23:57:00,79.2,37.0,30.07,ESE,112,0.9,0.0,22,0.00,CLR,,0.00,WeatherDisplay:10.37,2013-09-06 04:57:00,